Terminal Aerodrome Forecast
Issued by NWS Medford, OR

Home | Current Version | Previous Version | Text Only | Print | Product List | Glossary On
Versions: 1 2 3 4 5 6 7 8 9 10 11 12 13
000
FTUS46 KMFR 051149
TAFMFR
TAF
KMFR 051149Z 0512/0612 31004KT P6SM OVC045
     FM052200 32012G18KT P6SM SCT070
     FM060400 36006KT P6SM FEW060
     FM060800 00000KT P6SM BKN035=

USA.gov is the U.S. government's official web portal to all federal, state and local government web resources and services.